Time;durP1;ratioP1;P1;durP2;ratioP2;P2;SDS_P1;SDS_P2;PMS_P1;PMS_P2;Temp;Humidity;BMP_temperature;BMP_pressure;BME280_temperature;BME280_humidity;BME280_pressure;Samples;Min_cycle;Max_cycle;Signal;HPM_P1;HPM_P2
2022/08/27 00:02:09;;;;;;;1.40;1.30;;;17.50;99.90;;;;;;5113809;28;20037;-77
2022/08/27 00:04:35;;;;;;;1.08;1.08;;;17.50;99.90;;;;;;5095642;28;20502;-78
2022/08/27 00:07:03;;;;;;;1.02;0.65;;;17.50;99.90;;;;;;5113868;28;20020;-78
2022/08/27 00:09:29;;;;;;;0.88;0.80;;;17.40;99.90;;;;;;5113932;28;20015;-78
2022/08/27 00:11:56;;;;;;;1.30;1.25;;;17.40;99.90;;;;;;5114111;28;20460;-77
2022/08/27 00:14:23;;;;;;;1.02;0.75;;;17.30;99.90;;;;;;5114083;28;20027;-74
2022/08/27 00:16:49;;;;;;;1.77;1.02;;;17.30;99.90;;;;;;5113737;28;20047;-74
2022/08/27 00:19:15;;;;;;;1.27;1.00;;;17.30;99.90;;;;;;5113774;28;20030;-76
2022/08/27 00:21:40;;;;;;;1.05;0.90;;;17.20;99.90;;;;;;5113765;28;20023;-75
2022/08/27 00:24:06;;;;;;;4.10;2.00;;;17.10;99.90;;;;;;5113644;28;20114;-78
2022/08/27 00:26:32;;;;;;;1.10;0.88;;;17.10;99.90;;;;;;5094928;28;20104;-78
2022/08/27 00:28:58;;;;;;;3.60;1.23;;;17.00;99.90;;;;;;5095355;28;20126;-78
2022/08/27 00:31:23;;;;;;;1.23;1.20;;;17.00;99.90;;;;;;5113553;28;20016;-74
2022/08/27 00:33:49;;;;;;;0.63;0.63;;;16.90;99.90;;;;;;5095384;28;20030;-74
2022/08/27 00:36:15;;;;;;;1.13;0.95;;;16.90;99.90;;;;;;5113789;28;20051;-77
2022/08/27 00:38:41;;;;;;;1.38;0.82;;;16.80;99.90;;;;;;5113562;28;20043;-73
2022/08/27 00:41:09;;;;;;;1.67;1.35;;;16.60;99.90;;;;;;5113674;28;20032;-78
2022/08/27 00:43:52;;;;;;;1.40;0.60;;;16.60;99.90;;;;;;5113528;28;20072;-74
2022/08/27 00:46:37;;;;;;;2.63;1.10;;;16.50;99.90;;;;;;5113518;28;20027;-77
2022/08/27 00:49:16;;;;;;;2.47;1.63;;;16.50;99.90;;;;;;5113376;28;20016;-78
2022/08/27 00:51:44;;;;;;;;;;;16.40;99.90;;;;;;5095571;28;20023;-76
2022/08/27 00:54:10;;;;;;;1.80;1.33;;;16.40;99.90;;;;;;5113383;28;19904;-79
2022/08/27 00:56:44;;;;;;;0.75;0.75;;;16.30;99.90;;;;;;5113508;28;20103;-73
2022/08/27 00:59:15;;;;;;;0.93;0.77;;;16.30;99.90;;;;;;5095082;28;20102;-74
2022/08/27 01:04:27;;;;;;;2.47;1.17;;;16.30;99.90;;;;;;5113444;28;20039;-77
2022/08/27 01:06:54;;;;;;;0.80;0.80;;;16.30;99.90;;;;;;5113275;28;20016;-77
2022/08/27 01:09:20;;;;;;;4.03;2.28;;;16.30;99.90;;;;;;5113235;28;20460;-75
2022/08/27 01:11:47;;;;;;;1.60;1.50;;;16.20;99.90;;;;;;5095023;28;20027;-77
2022/08/27 01:14:14;;;;;;;1.52;0.85;;;16.20;99.90;;;;;;5113290;28;20098;-77
2022/08/27 01:16:46;;;;;;;1.13;1.13;;;16.10;99.90;;;;;;5113300;28;20020;-77
2022/08/27 01:19:24;;;;;;;3.83;2.72;;;16.10;99.90;;;;;;5095020;28;20395;-75
2022/08/27 01:21:58;;;;;;;0.98;0.98;;;16.00;99.90;;;;;;5094935;28;20067;-75
2022/08/27 01:24:41;;;;;;;1.48;1.30;;;16.00;99.90;;;;;;5112964;28;20039;-74
2022/08/27 01:27:09;;;;;;;3.33;2.03;;;15.90;99.90;;;;;;5094944;28;20108;-74
2022/08/27 01:29:36;;;;;;;2.33;1.20;;;15.90;99.90;;;;;;5094851;28;20059;-77
2022/08/27 01:32:09;;;;;;;1.42;1.38;;;15.80;99.90;;;;;;5094927;28;20034;-76
2022/08/27 01:34:36;;;;;;;0.95;0.68;;;15.80;99.90;;;;;;5113230;28;20027;-73
2022/08/27 01:37:04;;;;;;;1.17;1.08;;;15.80;99.90;;;;;;5095095;28;20442;-77
2022/08/27 01:39:30;;;;;;;2.58;1.15;;;15.90;99.90;;;;;;5096208;28;20024;-78
2022/08/27 01:42:08;;;;;;;1.25;1.15;;;15.90;99.90;;;;;;5116741;28;20026;-77
2022/08/27 01:44:49;;;;;;;1.38;0.98;;;16.00;99.90;;;;;;5116798;28;20028;-75
2022/08/27 01:47:16;;;;;;;0.93;0.88;;;16.00;99.90;;;;;;5116540;28;20031;-78
2022/08/27 01:49:42;;;;;;;1.17;1.13;;;16.00;99.90;;;;;;5098315;28;20161;-75
2022/08/27 01:52:08;;;;;;;1.13;1.10;;;16.00;99.90;;;;;;5098219;28;20065;-77
2022/08/27 01:54:34;;;;;;;1.63;1.30;;;16.00;99.90;;;;;;5116546;28;20034;-77
2022/08/27 01:57:00;;;;;;;1.77;0.98;;;16.10;99.90;;;;;;5116348;28;20015;-74
2022/08/27 01:59:26;;;;;;;3.90;1.25;;;16.20;99.90;;;;;;5116366;28;20384;-78
2022/08/27 02:01:54;;;;;;;1.08;1.02;;;16.30;99.90;;;;;;5116047;28;20400;-78
2022/08/27 02:04:21;;;;;;;2.08;1.20;;;16.40;99.90;;;;;;5097844;28;20035;-77
2022/08/27 02:06:46;;;;;;;0.90;0.90;;;16.40;99.90;;;;;;5116079;28;20077;-78
2022/08/27 02:09:12;;;;;;;1.48;1.13;;;16.40;99.90;;;;;;5116510;28;20023;-78
2022/08/27 02:11:38;;;;;;;1.77;0.95;;;16.50;99.90;;;;;;5116098;28;20030;-79
2022/08/27 02:14:04;;;;;;;1.33;1.20;;;16.40;99.90;;;;;;5116164;28;20028;-77
2022/08/27 02:16:31;;;;;;;1.08;1.00;;;16.50;99.90;;;;;;5116277;28;20085;-73
2022/08/27 02:18:57;;;;;;;4.43;1.77;;;16.50;99.90;;;;;;5097653;28;20035;-78
2022/08/27 02:21:24;;;;;;;1.23;1.13;;;16.60;99.90;;;;;;5097712;28;20054;-74
2022/08/27 02:23:50;;;;;;;1.73;1.63;;;16.70;99.90;;;;;;5115706;28;20055;-77
2022/08/27 02:26:15;;;;;;;1.20;0.90;;;16.80;99.90;;;;;;5097574;28;20073;-75
2022/08/27 02:28:41;;;;;;;2.05;1.05;;;16.80;99.90;;;;;;5115705;28;20019;-73
2022/08/27 02:31:07;;;;;;;2.35;0.70;;;16.80;99.90;;;;;;5115805;28;20503;-73
2022/08/27 02:33:33;;;;;;;0.93;0.90;;;16.80;99.90;;;;;;5115727;28;20020;-78
2022/08/27 02:35:59;;;;;;;1.50;1.33;;;16.80;99.90;;;;;;5097379;28;20023;-77
2022/08/27 02:38:24;;;;;;;1.85;1.33;;;16.90;99.90;;;;;;5115603;28;20505;-78
2022/08/27 02:40:50;;;;;;;1.02;0.93;;;17.00;99.90;;;;;;5115407;28;20019;-74
2022/08/27 02:43:16;;;;;;;1.48;1.13;;;17.10;99.90;;;;;;5115301;28;20049;-75
2022/08/27 02:45:42;;;;;;;1.50;1.13;;;17.10;99.90;;;;;;5097111;28;20114;-74
2022/08/27 02:48:07;;;;;;;1.27;0.77;;;17.10;99.90;;;;;;5115375;28;20015;-74
2022/08/27 02:50:33;;;;;;;3.30;1.85;;;17.10;99.90;;;;;;5114948;28;20384;-77
2022/08/27 02:53:03;;;;;;;1.33;1.10;;;17.10;99.90;;;;;;5115421;28;20489;-77
2022/08/27 02:55:29;;;;;;;1.42;0.80;;;17.20;99.90;;;;;;5115211;28;20055;-74
2022/08/27 02:57:55;;;;;;;1.80;1.17;;;17.20;99.90;;;;;;5115132;28;20016;-73
2022/08/27 03:00:23;;;;;;;1.42;1.33;;;17.20;99.90;;;;;;5115024;28;20024;-74
2022/08/27 03:02:49;;;;;;;1.33;1.20;;;17.20;99.90;;;;;;5115056;28;20044;-78
2022/08/27 03:05:17;;;;;;;1.42;1.33;;;17.10;99.90;;;;;;5096833;28;20031;-74
2022/08/27 03:07:43;;;;;;;2.30;1.30;;;17.00;99.90;;;;;;5115060;28;20023;-73
2022/08/27 03:10:10;;;;;;;0.88;0.88;;;16.90;99.90;;;;;;5115108;28;20030;-75
2022/08/27 03:12:36;;;;;;;0.55;0.55;;;16.80;99.90;;;;;;5115205;28;20026;-75
2022/08/27 03:15:04;;;;;;;0.65;0.65;;;16.70;99.90;;;;;;5096506;28;20454;-78
2022/08/27 03:20:13;;;;;;;0.77;0.77;;;16.60;99.90;;;;;;5115069;28;20030;-78
2022/08/27 03:22:39;;;;;;;1.30;1.20;;;16.60;99.90;;;;;;5114989;28;20028;-78
2022/08/27 03:25:05;;;;;;;2.35;1.27;;;16.50;99.90;;;;;;5096296;28;20084;-77
2022/08/27 03:27:31;;;;;;;0.93;0.93;;;16.40;99.90;;;;;;5114677;28;20026;-78
2022/08/27 03:29:57;;;;;;;3.00;1.35;;;16.40;99.90;;;;;;5096379;28;20402;-78
2022/08/27 03:32:23;;;;;;;1.50;1.40;;;16.30;99.90;;;;;;5114572;28;20051;-78
2022/08/27 03:34:48;;;;;;;1.40;1.30;;;16.30;99.90;;;;;;5114435;28;20077;-74
2022/08/27 03:37:14;;;;;;;0.52;0.52;;;16.30;99.90;;;;;;5096159;28;20016;-74
2022/08/27 03:39:40;;;;;;;0.95;0.95;;;16.20;99.90;;;;;;5114544;28;20379;-75
2022/08/27 03:42:05;;;;;;;2.40;1.15;;;16.30;99.90;;;;;;5114414;28;20020;-78
2022/08/27 03:44:31;;;;;;;1.90;1.52;;;16.30;99.90;;;;;;5114589;28;20430;-79
2022/08/27 03:46:58;;;;;;;1.90;1.40;;;16.30;99.90;;;;;;5114425;28;20476;-78
2022/08/27 03:49:24;;;;;;;0.85;0.85;;;16.30;99.90;;;;;;5114216;28;20020;-77
2022/08/27 03:51:51;;;;;;;1.75;1.13;;;16.40;99.90;;;;;;5095892;28;20030;-76
2022/08/27 03:54:17;;;;;;;1.17;1.05;;;16.50;99.90;;;;;;5114180;28;20084;-78
2022/08/27 03:56:43;;;;;;;1.42;0.90;;;16.50;99.90;;;;;;5095809;28;20072;-78
2022/08/27 03:59:08;;;;;;;1.33;1.20;;;16.60;99.90;;;;;;5114134;28;20110;-79
2022/08/27 04:01:34;;;;;;;1.23;1.15;;;16.60;99.90;;;;;;5091526;28;20040;-76
2022/08/27 04:04:00;;;;;;;0.93;0.93;;;16.60;99.90;;;;;;5093538;28;20417;-75
2022/08/27 04:06:27;;;;;;;1.20;1.10;;;16.60;99.90;;;;;;5093724;28;20024;-75
2022/08/27 04:08:52;;;;;;;1.67;1.58;;;16.70;99.90;;;;;;5093643;28;20039;-74
2022/08/27 04:11:18;;;;;;;1.15;0.75;;;16.70;99.90;;;;;;5093499;28;20019;-76
2022/08/27 04:13:44;;;;;;;1.02;0.93;;;16.80;99.90;;;;;;5093497;28;20503;-78
2022/08/27 04:16:09;;;;;;;0.63;0.63;;;16.90;99.90;;;;;;5093544;28;20038;-78
2022/08/27 04:18:35;;;;;;;3.53;1.45;;;17.00;99.90;;;;;;5092362;28;20028;-77
2022/08/27 04:21:08;;;;;;;3.03;1.25;;;17.00;99.90;;;;;;5093374;28;20020;-77
2022/08/27 04:23:33;;;;;;;0.80;0.80;;;17.00;99.90;;;;;;5091895;28;20431;-76
2022/08/27 04:26:03;;;;;;;4.80;1.30;;;17.00;99.90;;;;;;5091942;28;20024;-79
2022/08/27 04:28:29;;;;;;;1.40;1.17;;;17.00;99.90;;;;;;5091984;28;20024;-78
2022/08/27 04:30:55;;;;;;;2.50;1.35;;;17.10;99.90;;;;;;5093256;28;20024;-78
2022/08/27 04:33:21;;;;;;;1.45;1.05;;;17.10;99.90;;;;;;5093231;28;20073;-74
2022/08/27 04:35:46;;;;;;;1.00;1.00;;;17.10;99.90;;;;;;5093370;28;20035;-75
2022/08/27 04:38:12;;;;;;;0.95;0.95;;;17.10;99.90;;;;;;5093260;28;20052;-75
2022/08/27 04:41:25;;;;;;;1.30;1.20;;;17.10;99.90;;;;;;5093515;28;20192;-78
2022/08/27 04:43:27;;;;;;;14.02;0.95;;;17.10;99.90;;;;;;5085813;28;20057;-77
2022/08/27 04:45:52;;;;;;;1.33;1.33;;;17.20;99.90;;;;;;5092127;28;20496;-76
2022/08/27 04:48:18;;;;;;;0.93;0.93;;;17.20;99.90;;;;;;5091806;28;20028;-79
2022/08/27 04:50:46;;;;;;;0.70;0.70;;;17.20;99.90;;;;;;5093148;28;20021;-79
2022/08/27 04:53:13;;;;;;;1.08;0.98;;;17.30;99.90;;;;;;5091913;28;20020;-79
2022/08/27 04:55:43;;;;;;;2.58;1.23;;;17.30;99.90;;;;;;5091847;28;20020;-74
2022/08/27 04:58:09;;;;;;;1.33;1.23;;;17.40;99.90;;;;;;5093139;28;20039;-74
2022/08/27 05:00:41;;;;;;;0.70;0.70;;;17.40;99.90;;;;;;5091889;28;20020;-75
2022/08/27 05:03:06;;;;;;;1.88;1.33;;;17.50;99.90;;;;;;5112972;28;20058;-77
2022/08/27 05:05:32;;;;;;;1.30;1.20;;;17.50;99.90;;;;;;5113477;28;20027;-74
2022/08/27 05:07:58;;;;;;;2.90;1.42;;;17.50;99.90;;;;;;5113208;28;20047;-76
2022/08/27 05:10:23;;;;;;;0.73;0.70;;;17.60;99.90;;;;;;5095069;28;20110;-75
2022/08/27 05:12:49;;;;;;;1.30;0.80;;;17.60;99.90;;;;;;5113781;28;20027;-73
2022/08/27 05:15:15;;;;;;;1.38;1.25;;;17.60;99.90;;;;;;5117288;28;20015;-77
2022/08/27 05:17:41;;;;;;;0.95;0.95;;;17.60;99.90;;;;;;5099090;28;20023;-77
2022/08/27 05:20:08;;;;;;;2.05;0.93;;;17.70;99.90;;;;;;5098722;28;20023;-78
2022/08/27 05:22:34;;;;;;;1.05;1.05;;;17.70;99.90;;;;;;5098820;28;20028;-74
2022/08/27 05:25:00;;;;;;;0.52;0.52;;;17.70;99.90;;;;;;5116940;28;20039;-74
2022/08/27 05:27:26;;;;;;;1.35;1.00;;;17.70;99.90;;;;;;5117002;28;20020;-74
2022/08/27 05:29:51;;;;;;;2.10;0.65;;;17.70;99.90;;;;;;5117163;28;20460;-75
2022/08/27 05:32:17;;;;;;;1.10;1.10;;;19.60;99.90;;;;;;5116889;28;20027;-78
2022/08/27 05:34:42;;;;;;;0.80;0.80;;;17.70;99.90;;;;;;5117006;28;20055;-73
2022/08/27 05:37:09;;;;;;;0.63;0.63;;;17.80;99.90;;;;;;5116762;28;20026;-79
2022/08/27 05:39:34;;;;;;;1.92;1.05;;;17.90;99.90;;;;;;5117005;28;20020;-75
2022/08/27 05:42:00;;;;;;;1.40;1.30;;;18.00;99.90;;;;;;5116825;28;20383;-77
2022/08/27 05:44:26;;;;;;;1.75;1.27;;;18.10;99.90;;;;;;5116786;28;20028;-77
2022/08/27 05:46:52;;;;;;;0.98;0.90;;;18.10;99.90;;;;;;5116669;28;20027;-77
2022/08/27 05:49:17;;;;;;;1.30;1.08;;;18.10;99.90;;;;;;5116641;28;20111;-74
2022/08/27 05:51:43;;;;;;;0.80;0.70;;;18.10;99.90;;;;;;5116589;28;20023;-73
2022/08/27 05:54:15;;;;;;;1.48;1.38;;;18.00;99.90;;;;;;5116564;28;20391;-73
2022/08/27 05:56:41;;;;;;;1.83;1.02;;;18.20;99.90;;;;;;5116472;28;20012;-79
2022/08/27 06:01:53;;;;;;;0.60;0.60;;;18.20;99.90;;;;;;5116318;28;20587;-79
2022/08/27 06:04:20;;;;;;;0.52;0.52;;;18.20;99.90;;;;;;5116287;28;20081;-77
2022/08/27 06:06:48;;;;;;;1.20;0.98;;;18.20;99.90;;;;;;5098045;28;20019;-76
2022/08/27 06:09:18;;;;;;;1.33;1.25;;;18.20;99.90;;;;;;5098068;28;20464;-79
2022/08/27 06:11:45;;;;;;;1.50;0.75;;;18.30;99.90;;;;;;5116346;28;20028;-78
2022/08/27 06:14:13;;;;;;;2.35;1.05;;;18.30;99.90;;;;;;5116190;28;20046;-77
2022/08/27 06:16:40;;;;;;;1.50;0.70;;;18.30;99.90;;;;;;5116166;28;20076;-74
2022/08/27 06:19:08;;;;;;;2.03;1.20;;;18.40;99.90;;;;;;5116234;28;20019;-75
2022/08/27 06:21:34;;;;;;;1.63;1.38;;;18.40;99.90;;;;;;5115971;28;20460;-78
2022/08/27 06:24:00;;;;;;;1.45;1.27;;;18.50;99.90;;;;;;5115952;28;20039;-81
2022/08/27 06:26:26;;;;;;;1.38;0.50;;;18.50;99.90;;;;;;5115409;28;20024;-78
2022/08/27 06:28:52;;;;;;;1.80;1.08;;;18.60;99.90;;;;;;5115908;28;20488;-77
2022/08/27 06:31:24;;;;;;;1.38;0.90;;;18.70;99.90;;;;;;5097936;28;20111;-76
2022/08/27 06:33:52;;;;;;;0.80;0.75;;;18.80;99.90;;;;;;5116082;28;20012;-76
2022/08/27 06:36:22;;;;;;;1.58;1.48;;;19.00;99.90;;;;;;5115794;28;20059;-79
2022/08/27 06:38:48;;;;;;;5.32;1.33;;;19.10;99.90;;;;;;5115815;28;20240;-81
2022/08/27 06:41:17;;;;;;;1.95;1.05;;;19.20;99.90;;;;;;5097991;28;20422;-77
2022/08/27 06:43:43;;;;;;;2.42;1.58;;;19.30;99.90;;;;;;5097392;28;20115;-77
2022/08/27 06:46:13;;;;;;;1.25;1.10;;;19.40;99.90;;;;;;5115582;28;20070;-82
2022/08/27 06:48:40;;;;;;;1.10;1.00;;;19.40;99.90;;;;;;5097697;28;20024;-81
2022/08/27 06:51:30;;;;;;;1.48;1.05;;;19.40;99.90;;;;;;5098165;28;20069;-77
2022/08/27 06:53:58;;;;;;;1.13;1.10;;;19.40;99.90;;;;;;5088330;28;20468;-78
2022/08/27 06:56:24;;;;;;;1.92;1.13;;;19.50;99.90;;;;;;5116185;28;20084;-82
2022/08/27 06:58:54;;;;;;;1.77;1.67;;;19.50;99.90;;;;;;5115275;28;20023;-81
2022/08/27 07:01:26;;;;;;;1.20;1.10;;;19.60;99.90;;;;;;5115250;28;20071;-80
2022/08/27 07:04:00;;;;;;;1.58;1.00;;;19.80;99.90;;;;;;5096840;28;20028;-81
2022/08/27 07:06:27;;;;;;;2.63;1.85;;;19.90;99.90;;;;;;5115401;28;20030;-80
2022/08/27 07:08:53;;;;;;;1.25;1.25;;;19.80;99.90;;;;;;5115172;28;20061;-80
2022/08/27 07:11:20;;;;;;;0.90;0.85;;;19.80;99.90;;;;;;5115126;28;20424;-76
2022/08/27 07:13:47;;;;;;;1.05;0.95;;;19.90;99.90;;;;;;5114875;28;20019;-77
2022/08/27 07:16:15;;;;;;;0.85;0.85;;;19.90;99.90;;;;;;5114955;28;20380;-73
2022/08/27 07:18:41;;;;;;;4.40;2.90;;;19.90;99.90;;;;;;5114875;28;20023;-73
2022/08/27 07:21:07;;;;;;;1.23;1.20;;;19.80;99.90;;;;;;5115093;28;20051;-74
2022/08/27 07:23:35;;;;;;;0.77;0.77;;;19.90;99.90;;;;;;5079485;28;20499;-74
2022/08/27 07:26:04;;;;;;;2.05;1.15;;;20.00;99.90;;;;;;5114679;28;20047;-75
2022/08/27 07:28:30;;;;;;;;;;;20.00;99.90;;;;;;5096744;28;20024;-75
2022/08/27 07:30:55;;;;;;;1.85;1.27;;;19.90;99.90;;;;;;5116910;28;19904;-73
2022/08/27 07:33:21;;;;;;;1.50;1.40;;;19.90;99.90;;;;;;5114614;28;20028;-74
2022/08/27 07:35:48;;;;;;;1.15;1.15;;;19.90;99.90;;;;;;5096668;28;20019;-77
2022/08/27 07:38:14;;;;;;;1.13;1.05;;;20.00;99.90;;;;;;5098240;28;20055;-74
2022/08/27 07:40:40;;;;;;;1.17;0.98;;;20.00;99.90;;;;;;5102229;28;20023;-75
2022/08/27 07:45:54;;;;;;;1.45;1.33;;;20.00;99.90;;;;;;5114943;28;20070;-77
2022/08/27 07:48:21;;;;;;;1.38;1.20;;;20.00;99.90;;;;;;5114263;28;20019;-77
2022/08/27 07:50:47;;;;;;;2.00;1.73;;;19.90;99.90;;;;;;5095905;28;20028;-80
2022/08/27 07:53:13;;;;;;;6.03;2.05;;;20.00;99.90;;;;;;5096302;28;20096;-79
2022/08/27 07:55:39;;;;;;;2.13;1.80;;;19.90;99.90;;;;;;5114137;28;20069;-79
2022/08/27 07:58:05;;;;;;;2.65;2.03;;;20.00;99.90;;;;;;5114331;28;20121;-78
2022/08/27 08:00:32;;;;;;;1.42;1.33;;;20.20;99.90;;;;;;5114329;28;20051;-79
2022/08/27 08:02:58;;;;;;;1.27;0.98;;;20.20;99.90;;;;;;5114029;28;20055;-79
2022/08/27 08:05:25;;;;;;;2.40;1.63;;;20.20;99.90;;;;;;5114065;28;20051;-79
2022/08/27 08:07:51;;;;;;;3.13;2.38;;;20.40;99.90;;;;;;5114058;28;20435;-75
2022/08/27 08:10:21;;;;;;;1.42;1.35;;;20.60;99.90;;;;;;5113942;28;20141;-74
2022/08/27 08:12:47;;;;;;;1.20;1.10;;;20.80;99.90;;;;;;5095551;28;20051;-79
2022/08/27 08:15:13;;;;;;;3.03;1.77;;;21.10;99.90;;;;;;5113971;28;20052;-78
2022/08/27 08:17:39;;;;;;;2.00;1.73;;;21.20;99.90;;;;;;5095647;28;20022;-79
2022/08/27 08:20:07;;;;;;;1.20;0.98;;;21.10;99.90;;;;;;5113806;28;20106;-79
2022/08/27 08:22:33;;;;;;;2.95;1.17;;;21.10;99.90;;;;;;5095604;28;20091;-77
2022/08/27 08:24:58;;;;;;;4.15;2.05;;;21.20;99.90;;;;;;5113637;28;20464;-75
2022/08/27 08:27:24;;;;;;;2.78;1.73;;;21.20;99.90;;;;;;5113741;28;20035;-75
2022/08/27 08:29:50;;;;;;;3.45;2.40;;;21.10;99.90;;;;;;5113995;28;20019;-75
2022/08/27 08:32:16;;;;;;;2.25;1.85;;;21.30;99.90;;;;;;5114187;28;20042;-78
2022/08/27 08:34:43;;;;;;;2.10;1.90;;;21.40;99.90;;;;;;5113745;28;20020;-74
2022/08/27 08:37:09;;;;;;;3.35;1.88;;;21.60;99.90;;;;;;5113728;28;20030;-79
2022/08/27 08:39:36;;;;;;;1.75;1.52;;;21.90;99.90;;;;;;5113913;28;20549;-78
2022/08/27 08:42:04;;;;;;;3.90;2.38;;;22.20;99.90;;;;;;5095391;28;20030;-79
2022/08/27 08:44:40;;;;;;;1.60;1.42;;;22.50;99.90;;;;;;5113721;28;20063;-78
2022/08/27 08:47:26;;;;;;;5.05;1.98;;;23.00;99.90;;;;;;5113697;28;20031;-78
2022/08/27 08:50:15;;;;;;;1.90;1.77;;;22.90;99.90;;;;;;5117821;28;20192;-79
2022/08/27 08:52:51;;;;;;;4.22;2.03;;;22.90;99.90;;;;;;5099768;28;20416;-76
2022/08/27 08:55:47;;;;;;;1.10;1.08;;;23.00;99.90;;;;;;5117681;28;20055;-79
2022/08/27 08:58:31;;;;;;;2.63;1.83;;;23.10;99.90;;;;;;5099267;28;20012;-75
2022/08/27 09:01:00;;;;;;;1.52;1.42;;;23.00;99.90;;;;;;5117495;28;20088;-79
2022/08/27 09:03:28;;;;;;;0.98;0.98;;;22.80;99.90;;;;;;5099247;28;20036;-78
2022/08/27 09:06:29;;;;;;;1.75;1.13;;;22.80;99.90;;;;;;5117529;28;20028;-79
2022/08/27 09:09:07;;;;;;;6.60;2.58;;;22.50;99.90;;;;;;5085972;28;20031;-78
2022/08/27 09:12:02;;;;;;;4.03;1.30;;;22.50;99.90;;;;;;5099246;28;20073;-80
2022/08/27 09:14:40;;;;;;;11.52;1.95;;;22.50;99.90;;;;;;5117730;28;20051;-75
2022/08/27 09:17:07;;;;;;;3.67;1.70;;;22.80;99.90;;;;;;5117177;28;20019;-77
2022/08/27 09:19:33;;;;;;;4.53;1.80;;;23.20;99.90;;;;;;5099264;28;20016;-77
2022/08/27 09:22:09;;;;;;;8.88;1.83;;;24.50;99.90;;;;;;5098884;28;20027;-79
2022/08/27 09:24:58;;;;;;;2.25;2.05;;;25.60;99.90;;;;;;5117093;28;20043;-75
2022/08/27 09:27:24;;;;;;;3.08;2.10;;;25.80;99.90;;;;;;5117243;28;20045;-78
2022/08/27 09:29:58;;;;;;;2.53;2.00;;;26.30;99.90;;;;;;5098736;28;20028;-78
2022/08/27 09:32:27;;;;;;;1.95;1.80;;;27.10;99.90;;;;;;5117076;28;20028;-76
2022/08/27 09:34:58;;;;;;;19.38;3.15;;;25.30;99.90;;;;;;5116971;28;20487;-76
2022/08/27 09:37:29;;;;;;;2.38;1.70;;;24.70;99.90;;;;;;5098689;28;20063;-75
2022/08/27 09:40:26;;;;;;;2.40;2.20;;;24.10;99.90;;;;;;5116824;28;20026;-77
2022/08/27 09:43:06;;;;;;;1.65;1.38;;;24.00;99.90;;;;;;5105724;28;20043;-78
2022/08/27 09:45:33;;;;;;;5.35;1.75;;;23.80;99.90;;;;;;5098491;28;20118;-77
2022/08/27 09:48:13;;;;;;;1.17;1.17;;;24.00;99.90;;;;;;5116718;28;20020;-80
2022/08/27 09:50:47;;;;;;;2.60;1.70;;;24.20;99.90;;;;;;5116833;28;20035;-75
2022/08/27 09:53:43;;;;;;;1.40;1.30;;;24.50;99.90;;;;;;5098327;28;20035;-77
2022/08/27 09:56:20;;;;;;;2.80;1.70;;;24.90;99.90;;;;;;5114699;28;20085;-74
2022/08/27 09:58:53;;;;;;;4.25;1.85;;;25.00;99.90;;;;;;5116345;28;20541;-78
2022/08/27 10:01:21;;;;;;;2.28;1.60;;;24.90;99.90;;;;;;5097156;28;20437;-79
2022/08/27 10:04:01;;;;;;;1.48;1.35;;;24.90;99.90;;;;;;5116345;28;20085;-79
2022/08/27 10:06:29;;;;;;;4.40;1.35;;;24.90;99.90;;;;;;5116605;28;20016;-77
2022/08/27 10:09:21;;;;;;;3.80;1.25;;;24.90;99.90;;;;;;5098112;28;20084;-74
2022/08/27 10:12:05;;;;;;;1.40;1.27;;;25.00;99.90;;;;;;5116818;28;20464;-80
2022/08/27 10:14:37;;;;;;;1.25;1.25;;;25.10;99.90;;;;;;5116264;28;20069;-75
2022/08/27 10:17:15;;;;;;;1.48;1.38;;;25.10;99.90;;;;;;5116114;28;20015;-75
2022/08/27 10:20:02;;;;;;;3.92;1.13;;;26.90;99.90;;;;;;5116123;28;20399;-79
2022/08/27 10:22:33;;;;;;;2.45;1.83;;;24.50;99.90;;;;;;5116105;28;20495;-74
2022/08/27 10:25:07;;;;;;;5.32;1.42;;;24.90;99.90;;;;;;5097627;28;20052;-79
2022/08/27 10:27:52;;;;;;;1.38;1.20;;;24.90;99.90;;;;;;5097703;28;20111;-76
2022/08/27 10:30:23;;;;;;;3.13;1.10;;;25.00;99.90;;;;;;5115993;28;20159;-78
2022/08/27 10:32:58;;;;;;;1.75;1.13;;;25.00;99.90;;;;;;5115990;28;20020;-78
2022/08/27 10:35:48;;;;;;;3.65;1.70;;;25.30;99.90;;;;;;5115828;28;20051;-79
2022/08/27 10:38:37;;;;;;;1.77;1.67;;;25.60;99.90;;;;;;5115066;28;20032;-75
2022/08/27 10:41:28;;;;;;;1.90;1.70;;;25.50;99.90;;;;;;5115937;28;20019;-80
2022/08/27 10:44:24;;;;;;;3.20;1.63;;;25.40;99.90;;;;;;5115583;28;20175;-80
2022/08/27 10:47:08;;;;;;;2.53;1.52;;;25.00;99.90;;;;;;5115738;28;20026;-79
2022/08/27 10:49:55;;;;;;;2.30;1.30;;;25.10;99.90;;;;;;5115562;28;20023;-80
2022/08/27 10:52:21;;;;;;;3.67;1.42;;;25.60;99.90;;;;;;5115650;28;20388;-78
2022/08/27 10:54:59;;;;;;;2.38;1.75;;;25.40;99.90;;;;;;5097436;28;20023;-79
2022/08/27 10:58:02;;;;;;;2.58;1.40;;;25.40;99.90;;;;;;5115387;28;20023;-80
2022/08/27 11:00:52;;;;;;;1.58;1.00;;;25.20;99.90;;;;;;5115339;28;20065;-77
2022/08/27 11:03:26;;;;;;;1.08;0.82;;;25.40;99.90;;;;;;5115520;28;20495;-80
2022/08/27 11:05:54;;;;;;;1.20;1.20;;;25.90;99.90;;;;;;5115170;28;20480;-79
2022/08/27 11:08:26;;;;;;;1.17;1.08;;;26.70;99.90;;;;;;5096853;28;20020;-79
2022/08/27 11:11:01;;;;;;;2.38;1.00;;;27.60;99.90;;;;;;5096332;28;20476;-79
2022/08/27 11:13:34;;;;;;;0.45;0.45;;;28.50;93.90;;;;;;5114807;28;20103;-81
2022/08/27 11:16:05;;;;;;;1.77;1.05;;;28.80;82.20;;;;;;5096544;28;20057;-75
2022/08/27 11:18:48;;;;;;;1.05;0.98;;;29.20;75.80;;;;;;5096561;28;20016;-79
2022/08/27 11:21:28;;;;;;;5.63;1.20;;;29.70;77.50;;;;;;5114857;28;20104;-79
2022/08/27 11:24:27;;;;;;;1.70;1.00;;;30.40;72.30;;;;;;5114657;28;20115;-78
2022/08/27 11:26:57;;;;;;;0.70;0.70;;;30.10;70.70;;;;;;5096513;28;20031;-79
2022/08/27 11:29:34;;;;;;;0.80;0.80;;;30.70;69.90;;;;;;5096385;28;20028;-79
2022/08/27 11:32:03;;;;;;;0.52;0.45;;;31.10;67.40;;;;;;5096373;28;20035;-79
2022/08/27 11:34:50;;;;;;;0.70;0.70;;;30.50;67.90;;;;;;5114485;28;20015;-78
2022/08/27 11:37:33;;;;;;;2.15;0.80;;;30.70;65.80;;;;;;5114408;28;20096;-78
2022/08/27 11:40:16;;;;;;;1.15;0.52;;;30.50;65.60;;;;;;5114515;28;20479;-75
2022/08/27 11:42:48;;;;;;;0.80;0.80;;;30.30;66.70;;;;;;5096570;28;20077;-80
2022/08/27 11:45:37;;;;;;;1.10;0.95;;;30.70;66.20;;;;;;5096099;28;20035;-78
2022/08/27 11:48:19;;;;;;;0.80;0.80;;;31.00;64.40;;;;;;5114170;28;20044;-79
2022/08/27 11:50:55;;;;;;;1.10;1.02;;;31.10;65.40;;;;;;5095781;28;20020;-79
2022/08/27 11:53:31;;;;;;;0.95;0.60;;;30.90;64.20;;;;;;5096023;28;20020;-80
2022/08/27 11:56:18;;;;;;;0.75;0.75;;;31.30;63.50;;;;;;5114198;28;20388;-75
2022/08/27 11:58:44;;;;;;;0.80;0.68;;;32.10;61.80;;;;;;5109382;28;20028;-81
2022/08/27 12:01:27;;;;;;;0.65;0.65;;;32.50;60.80;;;;;;5095496;28;20236;-81
2022/08/27 12:04:19;;;;;;;0.40;0.40;;;31.90;61.20;;;;;;5113971;28;20032;-74
2022/08/27 12:06:59;;;;;;;0.50;0.50;;;30.20;63.50;;;;;;5113760;28;20020;-75
2022/08/27 12:09:26;;;;;;;0.40;0.40;;;30.10;64.60;;;;;;5114137;28;20020;-75
2022/08/27 12:12:18;;;;;;;1.15;0.85;;;30.90;61.50;;;;;;5114068;28;20024;-77
2022/08/27 12:15:13;;;;;;;1.33;1.25;;;31.00;61.60;;;;;;5095639;28;20024;-78
2022/08/27 12:17:57;;;;;;;1.35;1.10;;;31.50;60.80;;;;;;5079453;28;20129;-75
2022/08/27 12:20:41;;;;;;;1.08;0.82;;;31.60;60.60;;;;;;5095714;28;20028;-75
2022/08/27 12:23:54;;;;;;;1.10;0.80;;;31.10;61.30;;;;;;5113166;28;20024;-78
2022/08/27 12:26:29;;;;;;;1.20;0.52;;;30.50;62.40;;;;;;5110524;28;20050;-76
2022/08/27 12:29:23;;;;;;;0.77;0.77;;;29.80;64.10;;;;;;5113821;28;20527;-76
2022/08/27 12:31:53;;;;;;;1.33;1.23;;;30.00;65.90;;;;;;5113810;28;20387;-79
2022/08/27 12:34:24;;;;;;;0.82;0.65;;;30.50;64.00;;;;;;5095485;28;20060;-74
2022/08/27 12:36:52;;;;;;;1.25;0.57;;;30.20;65.40;;;;;;5095828;28;20436;-74
2022/08/27 12:39:25;;;;;;;2.42;0.60;;;29.50;66.10;;;;;;5113796;28;20077;-76
2022/08/27 12:41:51;;;;;;;0.57;0.57;;;29.00;68.20;;;;;;5113802;28;20495;-79
2022/08/27 12:44:27;;;;;;;1.40;0.90;;;29.60;67.60;;;;;;5113570;28;20032;-78
2022/08/27 12:47:03;;;;;;;1.98;1.35;;;30.80;64.20;;;;;;5113495;28;20429;-78
2022/08/27 12:49:37;;;;;;;0.50;0.50;;;31.60;63.10;;;;;;5113572;28;20420;-78
2022/08/27 12:52:32;;;;;;;1.83;1.25;;;31.80;61.70;;;;;;5095608;28;20024;-78
2022/08/27 12:55:09;;;;;;;1.00;0.75;;;32.30;61.90;;;;;;5113518;28;20024;-77
2022/08/27 12:58:00;;;;;;;0.32;0.32;;;33.30;61.00;;;;;;5095594;28;20038;-75
2022/08/27 13:00:34;;;;;;;1.08;0.85;;;34.10;57.10;;;;;;5119168;28;20031;-78
2022/08/27 13:03:36;;;;;;;1.00;0.70;;;33.90;54.30;;;;;;5105688;28;20314;-79
2022/08/27 13:06:13;;;;;;;1.15;1.05;;;34.00;53.90;;;;;;5117859;28;20093;-75
2022/08/27 13:08:38;;;;;;;0.90;0.90;;;33.70;54.20;;;;;;5123373;28;20023;-76
2022/08/27 13:11:16;;;;;;;1.65;0.70;;;34.50;53.70;;;;;;5123503;28;20026;-75
2022/08/27 13:13:42;;;;;;;0.45;0.45;;;34.50;54.10;;;;;;5123204;28;20086;-74
2022/08/27 13:16:08;;;;;;;1.15;0.90;;;34.50;54.80;;;;;;5123258;28;20023;-76
2022/08/27 13:18:35;;;;;;;2.55;0.70;;;34.20;54.00;;;;;;5122109;28;20024;-78
2022/08/27 13:21:16;;;;;;;0.90;0.90;;;33.50;54.60;;;;;;5104513;28;20270;-74